createdAt,value
2019-04-03T00:01:48.394Z,0.50
2019-04-03T00:16:54.512Z,0.48
2019-04-03T00:21:54.695Z,0.48
2019-04-03T00:26:41.976Z,0.41
2019-04-03T00:31:50.133Z,0.41
2019-04-03T00:37:11.425Z,0.37
2019-04-03T00:42:12.557Z,0.39
2019-04-03T00:47:03.167Z,0.54
2019-04-03T00:52:14.424Z,0.53
2019-04-03T00:57:01.954Z,0.54
2019-04-03T01:02:09.045Z,0.49
2019-04-03T01:07:17.327Z,0.52
2019-04-03T01:12:24.476Z,0.42
2019-04-03T01:17:34.528Z,0.55
2019-04-03T01:22:52.884Z,0.60
2019-04-03T01:27:42.095Z,0.39
2019-04-03T01:33:02.172Z,0.58
2019-04-03T01:38:02.401Z,0.67
2019-04-03T01:42:52.452Z,0.56
2019-04-03T01:47:58.489Z,0.63
2019-04-03T01:53:05.116Z,0.64
2019-04-03T01:58:26.194Z,0.71
2019-04-03T02:03:27.723Z,0.78
2019-04-03T02:08:15.886Z,0.86
2019-04-03T02:13:37.363Z,0.69
2019-04-03T02:23:28.915Z,0.74
2019-04-03T02:28:38.912Z,0.78
2019-04-03T02:33:36.423Z,0.80
2019-04-03T02:43:58.486Z,1.33
2019-04-03T02:48:59.582Z,1.17
2019-04-03T02:53:47.683Z,1.26
2019-04-03T03:04:08.904Z,1.33
2019-04-03T03:09:09.121Z,1.39
2019-04-03T03:13:57.203Z,1.53
2019-04-03T03:19:18.638Z,1.32
2019-04-03T03:24:05.798Z,1.30
2019-04-03T03:29:27.599Z,1.42
2019-04-03T03:34:14.469Z,1.19
2019-04-03T03:39:34.463Z,1.22
2019-04-03T03:44:22.797Z,1.31
2019-04-03T03:49:30.165Z,1.42
2019-04-03T03:54:37.415Z,1.42
2019-04-03T03:59:58.363Z,1.52
2019-04-03T04:04:48.190Z,1.84
2019-04-03T04:09:54.092Z,1.62
2019-04-03T04:15:01.034Z,1.81
2019-04-03T04:20:09.533Z,1.75
2019-04-03T04:25:30.554Z,1.85
2019-04-03T04:30:17.428Z,2.03
2019-04-03T04:40:31.583Z,2.50
2019-04-03T04:45:38.062Z,2.15
2019-04-03T04:50:46.519Z,2.47
2019-04-03T04:56:07.684Z,2.42
2019-04-03T05:05:59.409Z,2.73
2019-04-03T05:11:08.146Z,3.06
2019-04-03T05:21:34.081Z,3.25
2019-04-03T05:26:21.860Z,3.19
2019-04-03T05:31:42.188Z,3.04
2019-04-03T05:41:44.478Z,3.21
2019-04-03T05:51:32.788Z,4.42
2019-04-03T05:56:53.963Z,4.30
2019-04-03T06:01:42.609Z,4.05
2019-04-03T06:07:01.855Z,3.66
2019-04-03T06:12:03.054Z,3.86
2019-04-03T06:17:04.030Z,3.96
2019-04-03T06:21:51.385Z,4.18
2019-04-03T06:26:58.437Z,3.66
2019-04-03T06:37:23.235Z,4.71
2019-04-03T06:42:13.023Z,4.20
2019-04-03T06:47:17.825Z,4.61
2019-04-03T06:52:25.454Z,5.32
2019-04-03T06:57:45.383Z,6.07
2019-04-03T07:02:32.614Z,5.83
2019-04-03T07:07:52.626Z,5.97
2019-04-03T07:12:40.811Z,6.19
2019-04-03T07:14:01.205Z,7.14
2019-04-03T07:19:02.534Z,7.45
2019-04-03T07:24:02.648Z,5.51
2019-04-03T07:28:50.779Z,3.10
2019-04-03T07:34:11.935Z,2.68
2019-04-03T07:39:13.022Z,2.26
2019-04-03T07:44:13.243Z,2.29
2019-04-03T07:54:04.238Z,1.14
2019-04-03T07:59:09.706Z,0.94
2019-04-03T08:04:18.379Z,0.92
2019-04-03T08:09:27.550Z,1.12
2019-04-03T08:14:35.063Z,0.96
2019-04-03T08:19:44.908Z,1.00
2019-04-03T08:25:02.506Z,0.83
2019-04-03T08:30:02.710Z,1.10
2019-04-03T08:35:04.455Z,0.76
2019-04-03T08:40:02.979Z,0.58
2019-04-03T08:45:06.610Z,0.68
2019-04-03T08:50:05.070Z,0.69
2019-04-03T08:55:05.080Z,0.79
2019-04-03T08:59:52.358Z,1.08
2019-04-03T09:05:00.023Z,0.95
2019-04-03T09:10:06.714Z,0.88
2019-04-03T09:15:28.682Z,1.04
2019-04-03T09:20:15.332Z,0.97
2019-04-03T09:25:23.823Z,0.79
2019-04-03T09:30:30.795Z,0.77
2019-04-03T09:35:52.124Z,0.96
2019-04-03T09:40:52.075Z,0.66
2019-04-03T09:45:39.292Z,1.02
2019-04-03T09:51:00.330Z,0.63
2019-04-03T09:55:48.906Z,0.74
2019-04-03T10:00:55.807Z,0.78
2019-04-03T10:06:17.304Z,0.58
2019-04-03T10:16:08.152Z,0.67
2019-04-03T10:21:15.216Z,0.61
2019-04-03T10:26:23.424Z,0.63
2019-04-03T10:31:44.368Z,0.69
2019-04-03T10:36:45.901Z,0.64
2019-04-03T10:46:47.938Z,0.82
2019-04-03T10:51:47.286Z,0.94
2019-04-03T11:01:43.567Z,0.63
2019-04-03T11:07:03.638Z,0.64
2019-04-03T11:12:04.828Z,0.75
2019-04-03T11:17:04.866Z,0.62
2019-04-03T11:22:06.156Z,0.73
2019-04-03T11:27:06.179Z,0.61
2019-04-03T11:32:08.555Z,0.73
2019-04-03T11:37:06.539Z,0.56
2019-04-03T11:42:07.709Z,0.68
2019-04-03T11:46:54.739Z,1.39
2019-04-03T11:52:02.956Z,0.87
2019-04-03T11:57:26.140Z,0.74
2019-04-03T12:02:10.584Z,0.78
2019-04-03T12:12:21.580Z,0.68
2019-04-03T12:17:29.307Z,0.60
2019-04-03T12:22:36.280Z,0.61
2019-04-03T12:27:45.534Z,0.72
2019-04-03T12:33:03.688Z,0.57
2019-04-03T12:38:03.881Z,0.54
2019-04-03T12:43:05.288Z,0.63
2019-04-03T12:48:05.079Z,0.46
2019-04-03T12:52:53.346Z,0.52
2019-04-03T12:58:13.738Z,0.63
2019-04-03T13:03:13.762Z,0.56
2019-04-03T13:08:02.014Z,0.62
2019-04-03T13:13:10.266Z,0.74
2019-04-03T13:18:18.852Z,0.62
2019-04-03T13:23:38.784Z,0.57
2019-04-03T13:28:27.146Z,0.67
2019-04-03T13:33:34.728Z,0.62
2019-04-03T13:38:41.590Z,0.80
2019-04-03T13:44:02.704Z,0.84
2019-04-03T13:48:50.479Z,0.98
2019-04-03T13:53:57.474Z,0.76
2019-04-03T13:59:17.725Z,0.73
2019-04-03T14:04:17.619Z,0.80
2019-04-03T14:09:18.765Z,0.92
2019-04-03T14:14:06.880Z,0.74
2019-04-03T14:19:15.459Z,0.82
2019-04-03T14:24:43.781Z,1.03
2019-04-03T14:29:38.774Z,1.17
2019-04-03T14:34:24.288Z,1.30
2019-04-03T14:39:44.111Z,1.24
2019-04-03T14:44:32.311Z,0.80
2019-04-03T14:49:39.556Z,0.69
2019-04-03T14:54:47.649Z,0.66
2019-04-03T15:00:23.336Z,0.71
2019-04-03T15:05:09.233Z,0.82
2019-04-03T15:15:00.335Z,0.74
2019-04-03T15:25:08.762Z,1.17
2019-04-03T15:30:15.733Z,0.67
2019-04-03T15:35:23.101Z,0.82
2019-04-03T15:40:30.304Z,0.73
2019-04-03T15:50:42.162Z,0.78
2019-04-03T15:56:03.596Z,0.87
2019-04-03T16:00:50.765Z,1.12
2019-04-03T16:05:58.946Z,1.09
2019-04-03T16:11:19.255Z,1.12
2019-04-03T16:16:20.560Z,0.85
2019-04-03T16:21:07.604Z,0.76
2019-04-03T16:26:28.717Z,1.21
2019-04-03T16:31:29.743Z,2.13
2019-04-03T16:36:17.329Z,3.23
2019-04-03T16:41:38.251Z,3.17
2019-04-03T16:46:37.601Z,2.99
2019-04-03T16:51:24.909Z,4.31
2019-04-03T16:56:46.992Z,4.14
2019-04-03T17:01:33.439Z,3.82
2019-04-03T17:06:41.082Z,4.00
2019-04-03T17:12:01.409Z,2.98
2019-04-03T17:17:01.943Z,3.08
2019-04-03T17:22:06.683Z,3.17
2019-04-03T17:27:02.387Z,2.92
2019-04-03T17:32:13.617Z,3.93
2019-04-03T17:37:01.441Z,5.21
2019-04-03T17:42:09.159Z,4.30
2019-04-03T17:47:16.038Z,4.68
2019-04-03T17:52:24.717Z,4.92
2019-04-03T17:57:32.047Z,4.61
2019-04-03T18:02:39.702Z,4.38
2019-04-03T18:07:47.057Z,4.95
2019-04-03T18:12:54.468Z,4.72
2019-04-03T18:18:14.599Z,5.06
2019-04-03T18:23:14.874Z,5.22
2019-04-03T18:28:04.802Z,5.58
2019-04-03T18:33:10.614Z,5.73
2019-04-03T18:38:17.865Z,6.26
2019-04-03T18:43:25.618Z,6.47
2019-04-03T18:48:53.573Z,6.09
2019-04-03T18:53:33.129Z,6.49
2019-04-03T18:58:40.281Z,6.43
2019-04-03T19:04:01.750Z,6.46
2019-04-03T19:08:50.129Z,6.78
2019-04-03T19:13:56.373Z,6.76
2019-04-03T19:19:08.216Z,6.82
2019-04-03T19:24:12.027Z,7.26
2019-04-03T19:29:32.151Z,7.41
2019-04-03T19:34:20.157Z,6.91
2019-04-03T19:39:39.635Z,8.63
2019-04-03T19:44:41.724Z,9.05
2019-04-03T19:49:28.240Z,8.53
2019-04-03T19:54:51.184Z,8.67
2019-04-03T19:59:36.628Z,9.56
2019-04-03T20:04:45.909Z,10.27
2019-04-03T20:09:52.013Z,10.34
2019-04-03T20:15:13.438Z,10.44
2019-04-03T20:20:13.555Z,10.44
2019-04-03T20:25:00.834Z,10.31
2019-04-03T20:30:08.901Z,10.87
2019-04-03T20:35:18.709Z,10.81
2019-04-03T20:40:24.659Z,10.51
2019-04-03T20:45:45.752Z,10.58
2019-04-03T20:50:32.897Z,10.17
2019-04-03T20:55:54.120Z,10.41
2019-04-03T21:00:41.359Z,9.74
2019-04-03T21:05:48.866Z,10.19
2019-04-03T21:10:55.928Z,12.71
2019-04-03T21:16:04.157Z,14.22
2019-04-03T21:21:11.404Z,16.79
2019-04-03T21:26:18.578Z,13.78
2019-04-03T21:31:26.809Z,12.24
2019-04-03T21:36:46.959Z,10.59
2019-04-03T21:41:35.183Z,10.57
2019-04-03T21:46:42.502Z,9.52
2019-04-03T21:51:51.940Z,9.40
2019-04-03T21:56:58.025Z,9.26
2019-04-03T22:02:18.013Z,9.53
2019-04-03T22:07:19.218Z,9.63
2019-04-03T22:12:07.402Z,9.08
2019-04-03T22:17:16.875Z,8.49
2019-04-03T22:22:24.113Z,7.67
2019-04-03T22:27:44.830Z,7.45
2019-04-03T22:32:44.938Z,7.01
2019-04-03T22:37:33.257Z,6.66
2019-04-03T22:42:53.167Z,6.68
2019-04-03T22:47:41.385Z,7.32
2019-04-03T22:52:51.682Z,7.02
2019-04-03T22:58:11.905Z,6.22
2019-04-03T23:02:59.006Z,6.81
2019-04-03T23:08:07.825Z,6.71
2019-04-03T23:13:15.026Z,6.72
2019-04-03T23:18:35.155Z,6.52
2019-04-03T23:23:36.240Z,7.28
2019-04-03T23:28:36.424Z,7.87
2019-04-03T23:33:26.731Z,7.94
2019-04-03T23:38:34.176Z,7.64
2019-04-03T23:43:54.286Z,8.62
2019-04-03T23:48:54.421Z,9.14
2019-04-03T23:53:42.501Z,9.86
2019-04-03T23:58:50.769Z,10.19
